createdAt,value
2022-10-18T00:00:58.228Z,93.90
2022-10-18T00:03:26.215Z,94.50
2022-10-18T00:05:54.351Z,94.60
2022-10-18T00:08:22.461Z,94.90
2022-10-18T00:10:53.259Z,95.10
2022-10-18T00:13:21.766Z,94.90
2022-10-18T00:15:53.872Z,95.00
2022-10-18T00:18:21.938Z,95.00
2022-10-18T00:20:58.789Z,95.20
2022-10-18T00:23:27.411Z,95.00
2022-10-18T00:25:59.535Z,95.10
2022-10-18T00:28:27.464Z,95.20
2022-10-18T00:30:55.359Z,95.20
2022-10-18T00:33:23.309Z,95.30
2022-10-18T00:35:51.176Z,95.60
2022-10-18T00:38:19.162Z,95.70
2022-10-18T00:40:47.064Z,95.90
2022-10-18T00:43:16.354Z,95.90
2022-10-18T00:45:44.263Z,95.90
2022-10-18T00:48:13.821Z,95.70
2022-10-18T00:50:41.910Z,95.70
2022-10-18T00:53:12.474Z,96.30
2022-10-18T00:55:40.650Z,96.20
2022-10-18T00:58:09.248Z,96.50
2022-10-18T01:00:39.742Z,96.70
2022-10-18T01:03:08.852Z,96.70
2022-10-18T01:05:38.941Z,96.90
2022-10-18T01:08:33.338Z,97.00
2022-10-18T01:11:09.702Z,96.50
2022-10-18T01:13:43.875Z,97.10
2022-10-18T01:16:21.079Z,97.10
2022-10-18T01:18:54.039Z,96.70
2022-10-18T01:21:40.758Z,96.90
2022-10-18T01:24:14.962Z,96.80
2022-10-18T01:27:01.358Z,97.10
2022-10-18T01:29:47.792Z,97.40
2022-10-18T01:32:27.156Z,97.40
2022-10-18T01:34:58.654Z,97.50
2022-10-18T01:37:28.220Z,97.30
2022-10-18T01:39:57.415Z,97.20
2022-10-18T01:42:25.964Z,97.60
2022-10-18T01:44:54.478Z,98.20
2022-10-18T01:47:22.850Z,98.60
2022-10-18T01:49:56.949Z,98.50
2022-10-18T01:52:25.542Z,98.40
2022-10-18T01:54:54.438Z,98.70
2022-10-18T01:57:31.621Z,98.40
2022-10-18T02:00:11.725Z,98.80
2022-10-18T02:02:43.633Z,98.80
2022-10-18T02:05:30.569Z,99.30
2022-10-18T02:08:22.079Z,99.90
2022-10-18T02:11:08.351Z,99.90
2022-10-18T02:13:45.982Z,99.60
2022-10-18T02:16:17.111Z,99.00
2022-10-18T02:18:48.126Z,99.60
2022-10-18T02:21:18.533Z,99.70
2022-10-18T02:23:47.535Z,99.50
2022-10-18T02:26:18.924Z,99.90
2022-10-18T02:28:49.276Z,99.90
2022-10-18T02:31:22.146Z,99.90
2022-10-18T02:34:02.436Z,99.90
2022-10-18T02:36:30.305Z,99.90
2022-10-18T02:39:02.006Z,99.90
2022-10-18T02:41:31.062Z,99.90
2022-10-18T02:43:58.993Z,99.90
2022-10-18T02:48:54.849Z,99.90
2022-10-18T02:51:22.837Z,99.90
2022-10-18T02:53:50.722Z,99.90
2022-10-18T02:56:18.748Z,99.90
2022-10-18T02:58:46.753Z,99.90
2022-10-18T03:01:14.656Z,99.90
2022-10-18T03:03:42.602Z,99.90
2022-10-18T03:06:10.553Z,99.90
2022-10-18T03:08:38.570Z,99.90
2022-10-18T03:11:06.946Z,99.90
2022-10-18T03:13:34.876Z,99.90
2022-10-18T03:16:02.853Z,99.90
2022-10-18T03:18:30.869Z,99.90
2022-10-18T03:20:58.857Z,99.90
2022-10-18T03:23:26.774Z,99.90
2022-10-18T03:25:54.912Z,99.90
2022-10-18T03:28:22.863Z,99.90
2022-10-18T03:30:50.853Z,99.90
2022-10-18T03:33:19.017Z,99.90
2022-10-18T03:35:46.984Z,99.90
2022-10-18T03:38:14.968Z,99.90
2022-10-18T03:40:42.969Z,99.90
2022-10-18T03:43:10.953Z,99.90
2022-10-18T03:45:38.988Z,99.90
2022-10-18T03:48:07.179Z,99.90
2022-10-18T03:50:35.221Z,99.90
2022-10-18T03:53:03.209Z,99.90
2022-10-18T03:55:33.485Z,99.90
2022-10-18T03:58:01.392Z,99.90
2022-10-18T04:00:29.407Z,99.90
2022-10-18T04:02:57.406Z,99.90
2022-10-18T04:05:28.052Z,99.90
2022-10-18T04:07:55.960Z,99.90
2022-10-18T04:10:24.905Z,99.90
2022-10-18T04:12:52.893Z,99.90
2022-10-18T04:15:21.382Z,99.90
2022-10-18T04:17:49.374Z,99.90
2022-10-18T04:20:17.387Z,99.90
2022-10-18T04:22:45.495Z,99.90
2022-10-18T04:25:13.418Z,99.90
2022-10-18T04:27:41.581Z,99.90
2022-10-18T04:30:09.771Z,99.90
2022-10-18T04:32:37.997Z,99.90
2022-10-18T04:35:06.557Z,99.90
2022-10-18T04:37:34.725Z,99.90
2022-10-18T04:40:03.649Z,99.90
2022-10-18T04:42:31.608Z,99.90
2022-10-18T04:44:59.965Z,99.90
2022-10-18T04:47:27.844Z,99.90
2022-10-18T04:49:56.021Z,99.90
2022-10-18T04:52:26.387Z,99.90
2022-10-18T04:54:54.566Z,99.90
2022-10-18T04:57:23.506Z,99.90
2022-10-18T04:59:51.457Z,99.90
2022-10-18T05:02:19.447Z,99.90
2022-10-18T05:04:47.332Z,99.90
2022-10-18T05:07:15.450Z,99.90
2022-10-18T05:09:43.504Z,99.90
2022-10-18T05:12:11.508Z,99.90
2022-10-18T05:14:39.570Z,99.90
2022-10-18T05:17:07.489Z,99.90
2022-10-18T05:19:35.439Z,99.90
2022-10-18T05:22:03.475Z,99.90
2022-10-18T05:24:31.440Z,99.90
2022-10-18T05:26:59.476Z,99.90
2022-10-18T05:32:15.306Z,99.90
2022-10-18T05:34:43.363Z,99.90
2022-10-18T05:37:11.304Z,99.90
2022-10-18T05:39:39.250Z,99.90
2022-10-18T05:42:07.193Z,99.90
2022-10-18T05:44:35.117Z,99.90
2022-10-18T05:47:03.106Z,99.90
2022-10-18T05:49:30.997Z,99.90
2022-10-18T05:51:58.962Z,99.90
2022-10-18T05:54:27.007Z,99.90
2022-10-18T05:56:54.929Z,99.90
2022-10-18T05:59:22.974Z,99.90
2022-10-18T06:01:50.877Z,99.90
2022-10-18T06:04:18.857Z,99.90
2022-10-18T06:06:46.801Z,99.90
2022-10-18T06:09:14.978Z,99.90
2022-10-18T06:11:42.881Z,99.90
2022-10-18T06:14:10.842Z,99.90
2022-10-18T06:16:38.830Z,99.70
2022-10-18T06:19:07.075Z,99.20
2022-10-18T06:21:35.210Z,98.80
2022-10-18T06:24:03.260Z,98.60
2022-10-18T06:26:31.207Z,98.00
2022-10-18T06:28:59.171Z,96.90
2022-10-18T06:31:27.212Z,96.40
2022-10-18T06:33:56.470Z,96.70
2022-10-18T06:36:24.594Z,97.40
2022-10-18T06:38:52.470Z,97.00
2022-10-18T06:41:20.800Z,96.80
2022-10-18T06:43:49.657Z,96.60
2022-10-18T06:46:20.012Z,96.60
2022-10-18T06:48:50.431Z,96.30
2022-10-18T06:51:18.829Z,96.20
2022-10-18T06:53:59.606Z,95.90
2022-10-18T06:56:34.661Z,95.60
2022-10-18T06:59:02.844Z,95.30
2022-10-18T07:01:30.948Z,94.80
2022-10-18T07:03:59.040Z,94.40
2022-10-18T07:06:27.243Z,93.90
2022-10-18T07:08:55.326Z,93.40
2022-10-18T07:11:27.612Z,93.00
2022-10-18T07:14:01.155Z,92.40
2022-10-18T07:16:32.084Z,91.90
2022-10-18T07:19:00.256Z,91.40
2022-10-18T07:21:30.462Z,90.70
2022-10-18T07:23:58.390Z,90.10
2022-10-18T07:26:30.525Z,89.20
2022-10-18T07:29:00.770Z,88.10
2022-10-18T07:31:33.720Z,86.90
2022-10-18T07:34:03.829Z,85.80
2022-10-18T07:36:31.979Z,82.10
2022-10-18T07:39:00.133Z,81.90
2022-10-18T07:41:29.256Z,79.70
2022-10-18T07:43:57.333Z,79.90
2022-10-18T07:46:25.319Z,75.80
2022-10-18T07:48:53.439Z,75.60
2022-10-18T07:51:21.838Z,74.50
2022-10-18T07:53:49.951Z,72.50
2022-10-18T07:56:21.345Z,72.70
2022-10-18T07:58:51.664Z,69.20
2022-10-18T08:01:20.406Z,68.30
2022-10-18T08:03:48.398Z,68.10
2022-10-18T08:06:17.027Z,66.90
2022-10-18T08:08:46.197Z,66.50
2022-10-18T08:11:15.973Z,65.00
2022-10-18T08:13:44.116Z,64.90
2022-10-18T08:16:16.848Z,64.70
2022-10-18T08:18:48.383Z,61.70
2022-10-18T08:21:16.840Z,60.80
2022-10-18T08:23:44.996Z,60.00
2022-10-18T08:26:19.318Z,57.80
2022-10-18T08:28:54.124Z,55.50
2022-10-18T08:31:31.761Z,55.60
2022-10-18T08:34:00.387Z,53.80
2022-10-18T08:36:31.618Z,55.20
2022-10-18T08:38:59.746Z,53.30
2022-10-18T08:41:39.670Z,52.40
2022-10-18T08:44:17.118Z,52.20
2022-10-18T08:46:59.050Z,50.90
2022-10-18T08:49:30.213Z,49.50
2022-10-18T08:51:59.464Z,49.30
2022-10-18T08:54:35.094Z,49.10
2022-10-18T08:57:04.782Z,48.40
2022-10-18T08:59:38.415Z,48.60
2022-10-18T09:02:26.660Z,48.60
2022-10-18T09:04:54.656Z,47.60
2022-10-18T09:07:37.106Z,46.30
2022-10-18T09:10:29.592Z,46.50
2022-10-18T09:13:06.992Z,46.10
2022-10-18T09:16:10.520Z,45.60
2022-10-18T09:18:45.074Z,43.20
2022-10-18T09:21:19.587Z,43.40
2022-10-18T09:23:51.498Z,44.20
2022-10-18T09:26:20.832Z,44.60
2022-10-18T09:28:48.734Z,43.40
2022-10-18T09:31:23.439Z,42.70
2022-10-18T09:33:51.435Z,43.70
2022-10-18T09:36:24.733Z,43.70
2022-10-18T09:38:59.855Z,40.60
2022-10-18T09:41:28.782Z,42.20
2022-10-18T09:44:00.597Z,41.60
2022-10-18T09:46:32.698Z,40.40
2022-10-18T09:49:03.536Z,40.10
2022-10-18T09:51:35.936Z,41.40
2022-10-18T09:54:06.972Z,38.70
2022-10-18T09:56:41.961Z,37.60
2022-10-18T09:59:32.735Z,34.50
2022-10-18T10:02:00.790Z,38.90
2022-10-18T10:04:31.077Z,38.60
2022-10-18T10:07:00.679Z,36.70
2022-10-18T10:09:36.814Z,40.80
2022-10-18T10:12:05.011Z,41.30
2022-10-18T10:14:43.068Z,38.40
2022-10-18T10:17:30.147Z,37.80
2022-10-18T10:20:04.235Z,38.00
2022-10-18T10:22:35.205Z,38.00
2022-10-18T10:25:03.406Z,38.30
2022-10-18T10:27:34.090Z,39.70
2022-10-18T10:30:07.043Z,37.90
2022-10-18T10:32:46.407Z,38.60
2022-10-18T10:35:41.534Z,37.20
2022-10-18T10:38:23.504Z,48.20
2022-10-18T10:40:52.495Z,46.20
2022-10-18T10:43:39.995Z,53.50
2022-10-18T10:46:13.347Z,52.20
2022-10-18T10:49:00.355Z,54.50
2022-10-18T10:51:42.916Z,57.30
2022-10-18T10:54:22.327Z,54.00
2022-10-18T10:57:02.498Z,58.10
2022-10-18T10:59:32.166Z,54.20
2022-10-18T11:02:18.604Z,54.60
2022-10-18T11:04:47.794Z,57.40
2022-10-18T11:07:37.050Z,51.00
2022-10-18T11:10:14.074Z,52.60
2022-10-18T11:12:42.302Z,51.70
2022-10-18T11:15:10.701Z,50.70
2022-10-18T11:17:57.559Z,48.10
2022-10-18T11:20:25.579Z,53.50
2022-10-18T11:22:56.602Z,48.90
2022-10-18T11:25:27.156Z,51.00
2022-10-18T11:28:00.393Z,50.10
2022-10-18T11:30:28.435Z,54.80
2022-10-18T11:33:16.513Z,49.60
2022-10-18T11:35:52.297Z,48.60
2022-10-18T11:38:32.003Z,48.00
2022-10-18T11:41:00.054Z,47.30
2022-10-18T11:44:01.305Z,45.30
2022-10-18T11:46:41.518Z,43.00
2022-10-18T11:49:13.017Z,43.20
2022-10-18T11:52:11.831Z,42.60
2022-10-18T11:54:55.411Z,46.60
2022-10-18T11:57:23.360Z,48.30
2022-10-18T12:00:09.905Z,47.10
2022-10-18T12:02:43.082Z,45.10
2022-10-18T12:05:23.168Z,49.00
2022-10-18T12:08:02.853Z,44.60
2022-10-18T12:10:44.284Z,99.90
2022-10-18T12:13:18.798Z,99.90
2022-10-18T12:15:47.900Z,99.90
2022-10-18T12:18:20.732Z,99.90
2022-10-18T12:20:55.834Z,99.90
2022-10-18T12:23:26.748Z,99.90
2022-10-18T12:25:56.710Z,98.40
2022-10-18T12:28:39.172Z,72.10
2022-10-18T12:31:13.436Z,99.30
2022-10-18T12:33:43.635Z,91.80
2022-10-18T12:36:26.855Z,90.00
2022-10-18T12:38:54.726Z,76.40
2022-10-18T12:41:29.945Z,74.40
2022-10-18T12:44:07.214Z,72.90
2022-10-18T12:47:01.846Z,73.60
2022-10-18T12:49:33.715Z,73.70
2022-10-18T12:52:03.760Z,67.70
2022-10-18T12:54:33.550Z,70.80
2022-10-18T12:57:02.022Z,75.30
2022-10-18T12:59:29.943Z,69.90
2022-10-18T13:01:57.878Z,72.70
2022-10-18T13:04:28.835Z,67.90
2022-10-18T13:07:05.858Z,62.20
2022-10-18T13:09:36.925Z,69.50
2022-10-18T13:12:07.910Z,71.80
2022-10-18T13:15:05.731Z,66.50
2022-10-18T13:17:58.423Z,62.30
2022-10-18T13:20:38.538Z,63.70
2022-10-18T13:23:09.573Z,65.00
2022-10-18T13:25:52.346Z,69.00
2022-10-18T13:28:29.475Z,60.90
2022-10-18T13:31:09.748Z,69.50
2022-10-18T13:33:39.757Z,61.80
2022-10-18T13:36:22.482Z,65.90
2022-10-18T13:38:55.976Z,61.90
2022-10-18T13:44:29.158Z,67.10
2022-10-18T13:47:00.127Z,62.20
2022-10-18T13:49:37.270Z,64.60
2022-10-18T13:52:18.780Z,66.40
2022-10-18T13:55:05.396Z,61.00
2022-10-18T13:57:39.508Z,65.40
2022-10-18T14:00:16.951Z,63.80
2022-10-18T14:03:03.902Z,60.50
2022-10-18T14:06:04.579Z,64.50
2022-10-18T14:11:23.338Z,63.60
2022-10-18T14:14:03.619Z,62.30
2022-10-18T14:16:43.873Z,63.00
2022-10-18T14:19:17.941Z,63.40
2022-10-18T14:22:04.404Z,63.70
2022-10-18T14:24:32.870Z,61.80
2022-10-18T14:27:11.575Z,61.00
2022-10-18T14:29:39.972Z,62.90
2022-10-18T14:32:09.653Z,67.10
2022-10-18T14:34:38.048Z,63.90
2022-10-18T14:37:06.320Z,67.20
2022-10-18T14:39:34.289Z,66.40
2022-10-18T14:42:03.103Z,68.00
2022-10-18T14:44:32.445Z,68.20
2022-10-18T14:47:00.339Z,69.50
2022-10-18T14:49:29.170Z,70.00
2022-10-18T14:51:59.440Z,72.30
2022-10-18T14:54:33.223Z,70.90
2022-10-18T14:57:02.806Z,71.20
2022-10-18T14:59:45.794Z,71.90
2022-10-18T15:02:20.230Z,71.30
2022-10-18T15:05:10.415Z,72.50
2022-10-18T15:07:40.086Z,73.10
2022-10-18T15:10:14.308Z,73.70
2022-10-18T15:13:08.328Z,74.80
2022-10-18T15:15:33.423Z,75.70
2022-10-18T15:18:03.905Z,75.70
2022-10-18T15:20:33.639Z,77.10
2022-10-18T15:23:25.307Z,76.90
2022-10-18T15:26:00.420Z,76.70
2022-10-18T15:28:33.376Z,77.50
2022-10-18T15:31:02.800Z,77.80
2022-10-18T15:33:35.000Z,78.40
2022-10-18T15:36:26.706Z,79.50
2022-10-18T15:39:03.874Z,79.90
2022-10-18T15:41:50.780Z,79.80
2022-10-18T15:44:20.731Z,80.60
2022-10-18T15:46:49.296Z,81.10
2022-10-18T15:49:54.816Z,80.70
2022-10-18T15:52:35.169Z,81.10
2022-10-18T15:55:24.207Z,83.00
2022-10-18T15:57:52.110Z,82.00
2022-10-18T16:00:21.065Z,81.50
2022-10-18T16:02:49.064Z,82.70
2022-10-18T16:05:17.306Z,83.90
2022-10-18T16:07:45.341Z,84.10
2022-10-18T16:10:14.357Z,84.50
2022-10-18T16:12:42.390Z,84.20
2022-10-18T16:15:10.585Z,85.40
2022-10-18T16:17:38.540Z,85.20
2022-10-18T16:20:06.954Z,84.60
2022-10-18T16:22:37.043Z,86.10
2022-10-18T16:25:05.419Z,86.20
2022-10-18T16:27:33.370Z,87.80
2022-10-18T16:30:01.391Z,86.50
2022-10-18T16:32:29.469Z,88.00
2022-10-18T16:34:57.554Z,88.70
2022-10-18T16:37:25.456Z,86.00
2022-10-18T16:39:53.330Z,86.90
2022-10-18T16:42:21.338Z,87.70
2022-10-18T16:44:49.509Z,88.10
2022-10-18T16:47:18.267Z,89.40
2022-10-18T16:49:47.179Z,88.20
2022-10-18T16:52:15.214Z,89.40
2022-10-18T16:54:43.158Z,90.30
2022-10-18T16:57:13.035Z,88.10
2022-10-18T16:59:41.107Z,90.00
2022-10-18T17:02:09.590Z,89.20
2022-10-18T17:04:37.556Z,88.10
2022-10-18T17:07:05.803Z,89.20
2022-10-18T17:09:35.269Z,89.20
2022-10-18T17:12:03.323Z,90.00
2022-10-18T17:14:34.981Z,90.20
2022-10-18T17:17:03.133Z,91.40
2022-10-18T17:19:31.057Z,90.20
2022-10-18T17:22:02.560Z,90.50
2022-10-18T17:24:31.021Z,88.80
2022-10-18T17:26:59.078Z,90.20
2022-10-18T17:29:27.157Z,90.30
2022-10-18T17:31:55.193Z,90.30
2022-10-18T17:34:23.227Z,90.90
2022-10-18T17:36:51.102Z,90.60
2022-10-18T17:39:19.271Z,92.10
2022-10-18T17:41:47.154Z,90.50
2022-10-18T17:44:15.283Z,90.70
2022-10-18T17:46:43.353Z,91.20
2022-10-18T17:49:11.356Z,91.30
2022-10-18T17:51:40.926Z,91.00
2022-10-18T17:54:09.345Z,92.10
2022-10-18T17:56:37.263Z,91.70
2022-10-18T17:59:05.222Z,92.20
2022-10-18T18:01:33.507Z,92.10
2022-10-18T18:04:02.148Z,92.40
2022-10-18T18:06:39.339Z,92.50
2022-10-18T18:09:08.637Z,92.90
2022-10-18T18:11:37.233Z,92.10
2022-10-18T18:14:09.927Z,93.00
2022-10-18T18:16:38.693Z,92.60
2022-10-18T18:19:09.672Z,93.20
2022-10-18T18:21:38.662Z,92.90
2022-10-18T18:24:07.352Z,93.90
2022-10-18T18:26:35.603Z,93.50
2022-10-18T18:31:51.622Z,93.80
2022-10-18T18:34:22.392Z,94.70
2022-10-18T18:36:52.214Z,94.00
2022-10-18T18:39:25.152Z,93.70
2022-10-18T18:41:53.480Z,95.10
2022-10-18T18:44:21.959Z,95.70
2022-10-18T18:46:49.835Z,95.10
2022-10-18T18:49:17.835Z,97.10
2022-10-18T18:51:46.032Z,96.10
2022-10-18T18:54:14.759Z,97.00
2022-10-18T18:56:43.062Z,98.00
2022-10-18T18:59:15.109Z,96.50
2022-10-18T19:01:43.638Z,96.90
2022-10-18T19:04:11.762Z,97.10
2022-10-18T19:06:44.763Z,97.60
2022-10-18T19:09:19.614Z,99.60
2022-10-18T19:11:48.653Z,99.90
2022-10-18T19:14:16.586Z,99.90
2022-10-18T19:16:54.510Z,99.90
2022-10-18T19:19:23.584Z,98.20
2022-10-18T19:21:52.956Z,99.90
2022-10-18T19:24:21.946Z,98.70
2022-10-18T19:26:55.942Z,99.90
2022-10-18T19:29:24.046Z,99.90
2022-10-18T19:31:52.938Z,99.90
2022-10-18T19:34:22.037Z,99.90
2022-10-18T19:36:50.813Z,99.90
2022-10-18T19:39:19.800Z,99.90
2022-10-18T19:41:49.643Z,99.90
2022-10-18T19:44:20.614Z,99.90
2022-10-18T19:46:49.117Z,99.90
2022-10-18T19:49:17.211Z,99.90
2022-10-18T19:51:45.593Z,99.90
2022-10-18T19:54:14.692Z,99.90
2022-10-18T19:56:43.113Z,99.90
2022-10-18T19:59:11.802Z,99.90
2022-10-18T20:01:39.887Z,99.90
2022-10-18T20:04:08.712Z,99.90
2022-10-18T20:06:37.204Z,99.90
2022-10-18T20:09:06.314Z,99.90
2022-10-18T20:11:34.194Z,99.90
2022-10-18T20:14:02.604Z,99.90
2022-10-18T20:16:31.642Z,99.90
2022-10-18T20:19:00.738Z,99.90
2022-10-18T20:21:29.951Z,99.90
2022-10-18T20:23:57.862Z,99.90
2022-10-18T20:26:26.213Z,99.90
2022-10-18T20:28:59.044Z,99.90
2022-10-18T20:31:35.901Z,99.90
2022-10-18T20:34:04.897Z,99.90
2022-10-18T20:36:33.143Z,99.90
2022-10-18T20:39:02.573Z,99.90
2022-10-18T20:41:31.777Z,99.90
2022-10-18T20:44:01.206Z,99.90
2022-10-18T20:46:33.090Z,99.90
2022-10-18T20:49:01.575Z,99.90
2022-10-18T20:51:29.705Z,99.90
2022-10-18T20:53:57.709Z,99.90
2022-10-18T20:56:29.162Z,99.90
2022-10-18T20:58:57.654Z,99.90
2022-10-18T21:01:26.470Z,99.90
2022-10-18T21:03:55.762Z,99.90
2022-10-18T21:06:30.360Z,99.90
2022-10-18T21:08:59.562Z,99.90
2022-10-18T21:11:28.286Z,99.90
2022-10-18T21:13:59.217Z,99.90
2022-10-18T21:16:27.394Z,99.90
2022-10-18T21:18:55.394Z,99.90
2022-10-18T21:21:23.988Z,99.90
2022-10-18T21:23:52.521Z,99.90
2022-10-18T21:26:21.925Z,99.90
2022-10-18T21:28:50.689Z,99.90
2022-10-18T21:31:22.811Z,99.90
2022-10-18T21:33:54.593Z,99.90
2022-10-18T21:36:22.889Z,99.90
2022-10-18T21:38:51.030Z,99.90
2022-10-18T21:41:20.313Z,99.90
2022-10-18T21:43:49.536Z,99.90
2022-10-18T21:46:18.074Z,99.90
2022-10-18T21:48:48.093Z,99.90
2022-10-18T21:51:18.066Z,99.90
2022-10-18T21:53:47.442Z,99.90
2022-10-18T21:56:16.940Z,99.90
2022-10-18T21:58:45.550Z,99.90
2022-10-18T22:01:21.074Z,99.90
2022-10-18T22:03:50.223Z,99.90
2022-10-18T22:06:18.335Z,99.90
2022-10-18T22:08:53.980Z,99.90
2022-10-18T22:11:26.337Z,99.90
2022-10-18T22:13:55.025Z,99.90
2022-10-18T22:16:23.128Z,99.90
2022-10-18T22:18:52.062Z,99.90
2022-10-18T22:21:20.488Z,99.90
2022-10-18T22:23:49.541Z,99.90
2022-10-18T22:26:19.114Z,99.90
2022-10-18T22:28:47.723Z,99.90
2022-10-18T22:31:20.466Z,99.90
2022-10-18T22:33:53.476Z,99.90
2022-10-18T22:36:21.610Z,99.90
2022-10-18T22:38:49.491Z,99.90
2022-10-18T22:41:17.408Z,99.90
2022-10-18T22:43:45.520Z,99.90
2022-10-18T22:46:14.396Z,99.90
2022-10-18T22:48:42.767Z,99.90
2022-10-18T22:51:11.104Z,99.90
2022-10-18T22:53:40.169Z,99.90
2022-10-18T22:56:09.430Z,99.90
2022-10-18T22:58:37.381Z,99.90
2022-10-18T23:01:06.683Z,99.90
2022-10-18T23:03:34.854Z,99.90
2022-10-18T23:06:02.907Z,99.90
2022-10-18T23:08:31.144Z,99.90
2022-10-18T23:10:59.772Z,99.90
2022-10-18T23:13:28.051Z,99.90
2022-10-18T23:16:04.305Z,99.90
2022-10-18T23:18:33.082Z,99.90
2022-10-18T23:21:04.880Z,99.90
2022-10-18T23:23:35.777Z,99.90
2022-10-18T23:26:05.131Z,99.90
2022-10-18T23:28:33.871Z,99.90
2022-10-18T23:31:05.558Z,99.90
2022-10-18T23:33:33.524Z,99.90
2022-10-18T23:36:01.511Z,99.90
2022-10-18T23:38:30.605Z,99.90
2022-10-18T23:40:59.649Z,99.90
2022-10-18T23:43:27.830Z,99.90
2022-10-18T23:45:55.733Z,99.90
2022-10-18T23:48:24.088Z,99.90
2022-10-18T23:50:52.014Z,99.90
2022-10-18T23:53:20.358Z,99.90
2022-10-18T23:55:54.370Z,99.90
2022-10-18T23:58:22.540Z,99.90
